x

La Perouse Bank (46206) Wave Buoy

4:00am - Thu 30th Jun 2016 All times are PDT. -7 hours from GMT.

  • Sig Wave height 3.9ft
  • Peak Period 5s
  • Wind
    7mph, 18mph gusts
  • Sea Temp 58°f
  • Air Temp 58°f
  • Sea Pressure 1023.4mb
  • La Perouse Bank
  • La Perouse Bank

More Historic Weather Station data

Upgrade to MSW Pro to gain access to the past 30 days of data for over 8000 Wavebouys and Weather Stations around the globe.

Join Pro

Comparision Forecast

View Surf forecast
   
Thu 06/30 4:00am 4ft 5s 7 18 mph 1023.4mb 58f 58f
3:00am 3.5ft 5s 9 20 mph 1023.3mb 58f 58f
2:00am 3.5ft 4s 9 18 mph 1023.2mb 58f 58f
1:00am 3.5ft 4s 9 20 mph 1023.2mb 58f 59f
12:00am 3.5ft 4s 9 18 mph 1023.3mb 58f 58f
Wed 06/29 11:00pm 3.5ft 4s 9 18 mph 1023.3mb 57f 58f
10:00pm 3.5ft 4s 9 18 mph 1023.4mb 58f 58f
9:00pm 3.5ft 4s 7 16 mph 1023.2mb 58f 59f
8:00pm 3.5ft 4s 2 7 mph 1023.4mb 58f 59f
7:00pm 3.5ft 4s 2 9 mph 1023.5mb 58f 59f
6:00pm 4ft 5s 7 18 mph 1023.7mb 58f 60f
5:00pm 3.5ft 5s 13 22 mph 1024mb 58f 60f
4:00pm 4ft 5s 11 18 mph 1024.2mb 58f 60f
3:00pm 4ft 6s 9 18 mph 1024.3mb 58f 59f
2:00pm 4ft 6s 13 20 mph 1024.3mb 58f 59f
1:00pm 4.5ft 6s 16 20 mph 1024.3mb 58f 59f
12:00pm 4.5ft 6s 13 18 mph 1024mb 58f 58f
11:00am 5ft 6s 16 20 mph 1023.9mb 58f 58f
10:00am 5.5ft 7s 13 20 mph 1023.7mb 58f 58f
9:00am 5.5ft 7s 11 20 mph 1023.3mb 58f 58f
8:00am 6.5ft 7s 9 18 mph 1022.9mb 58f 58f
7:00am  -   -  11
mph
1022.8mb - 58f
6:00am 6ft 7s 4 13 mph 1022.6mb 57f 58f
5:00am 6ft 7s 7 18 mph 1022.4mb 57f 58f
4:00am 6ft 7s 9 20 mph 1022.2mb 57f 58f
3:00am 6ft 7s 13 22 mph 1022.2mb 57f 58f
2:00am 6ft 7s 13 22 mph 1022.2mb 57f 58f
1:00am 6ft 6s 16 22 mph 1022.1mb 57f 59f
12:00am 6ft 7s 18 25 mph 1021.8mb 57f 59f
Tue 06/28 11:00pm 6ft 6s 18 25 mph 1021.8mb 57f 59f
10:00pm 5.5ft 6s 18 25 mph 1022mb 58f 60f
9:00pm 5.5ft 6s 18 27 mph 1021.6mb 58f 60f
8:00pm 5ft 6s 16 22 mph 1021.8mb 58f 60f
7:00pm 4.5ft 6s 16 22 mph 1022mb 59f 60f
6:00pm 4.5ft 9s 13 20 mph 1022.3mb 58f 59f
5:00pm 4.5ft 7s 11 18 mph 1022.5mb 59f 58f
4:00pm 4.5ft 16s 4 11 mph 1023.1mb 58f 58f
3:00pm 4.5ft 7s 2 9 mph 1023.5mb 58f 58f
2:00pm 4.5ft 7s  -  4 mph 1023.8mb 59f 59f
1:00pm 4.5ft 7s  -  2 mph 1023.8mb 58f 59f
12:00pm 5ft 6s  -  mph 1023.8mb 58f 58f
11:00am 5ft 7s  -  2 mph 1023.6mb 58f 58f
10:00am 5ft 8s  -  2 mph 1023.3mb 57f 57f
9:00am 5ft 7s  -  2 mph 1023.2mb 58f 57f
8:00am 5.5ft 7s  -  mph 1023mb 58f 57f
7:00am 6ft 8s  -  mph 1022.9mb 58f 57f
6:00am 6ft 8s  -  mph 1022.7mb 58f 57f
5:00am 6ft 7s  -  4 mph 1022.7mb 58f 58f
4:00am 6.5ft 8s  -  mph 1022.6mb 58f 58f
3:00am 6ft 8s  -  4 mph 1022.7mb 58f 58f
2:00am 7ft 7s 2 9 mph 1022.6mb 58f 58f
1:00am 6.5ft 7s 4 13 mph 1022.7mb 58f 58f
12:00am 6.5ft 8s 7 13 mph 1022.7mb 58f 58f
Mon 06/27 11:00pm 7ft 7s 9 18 mph 1022.9mb 59f 59f
10:00pm 7ft 7s 11 18 mph 1022.8mb 58f 59f
9:00pm 7ft 7s 11 20 mph 1022.4mb 58f 59f
8:00pm 6ft 6s 4 13 mph 1022.3mb 59f 59f
7:00pm 6ft 8s 18 25 mph 1021.9mb 58f 59f
6:00pm 6ft 7s 9 20 mph 1022mb 59f 60f
5:00pm 6ft 8s 18 22 mph 1022.2mb 58f 60f
4:00pm 7ft 7s 2 9 mph 1022.5mb 59f 60f
3:00pm 6ft 7s 4 20 mph 1022.7mb 58f 59f
2:00pm 6.5ft 8s 2 11 mph 1022.6mb 59f 59f
1:00pm 6ft 10s 2 7 mph 1022.7mb 58f 59f
12:00pm 6ft 10s 11 16 mph 1022.5mb 59f 60f
11:00am 6ft 10s  -  4 mph 1022.2mb 58f 60f
10:00am 5.5ft 18s 4 9 mph 1022mb 58f 60f
9:00am 6ft 18s  -  2 mph 1021.7mb 58f 60f
8:00am 5ft 8s  -  2 mph 1021.6mb 58f 60f
7:00am 6ft 7s 2 7 mph 1021.1mb 58f 60f
6:00am 6ft 6s 2 7 mph 1020.9mb 58f 59f
5:00am 6ft 7s 2 9 mph 1020.6mb 58f 59f
4:00am 6ft 7s 2 4 mph 1020.6mb 58f 59f
3:00am 5.5ft 10s 4 9 mph 1020.5mb 58f 59f
2:00am 5ft 17s 7 16 mph 1020.6mb 58f 59f
1:00am 5ft 6s 13 20 mph 1020.6mb 58f 59f
12:00am 5ft 18s 13 20 mph 1020.6mb 58f 60f
Sun 06/26 11:00pm 5ft 17s 13 20 mph 1020.7mb 59f 60f
10:00pm 5ft 17s 18 22 mph 1021mb 58f 60f
9:00pm 5ft 16s 16 22 mph 1021mb 58f 60f
8:00pm 4.5ft 16s 13 20 mph 1021.5mb 58f 60f
7:00pm 5ft 16s 4 16 mph 1022mb 58f 60f
6:00pm 5ft 17s 2 13 mph 1022.2mb 58f 60f
5:00pm 4.5ft 17s 4 20 mph 1022.7mb 59f 60f
4:00pm 4.5ft 17s 2 13 mph 1023.2mb 58f 60f
3:00pm 4ft 17s 2 9 mph 1023.8mb 58f 60f
2:00pm 4ft 16s 2 9 mph 1024.4mb 58f 60f
1:00pm 4ft 17s 4 11 mph 1024.4mb 58f 60f